Cheryl Ann — WDB2326 — position and weather

sailwx.info

Track history (hours):
 
Tides and Currents Weather Stations Pressure Air Temp Water Temp Dewpoint Dewpoint Depression Visibility Wind Speed Wind Dir Waves Ship Positions

Cheryl Ann

Owner: BROUSSARD BROTHERS INC, ABBEVILLE, LA. More information available from US FCC via Universal Licensing System and Coast Guard Vessel Documentation Center.

Last reported at 2018-Feb-18 14:03 UTC. Time now 2018-Feb-25 10:04 UTC.
Position N 29°35' W 090°36'.

Length 21 m.

Type: Tug. MMSI: 366874680.

Date/timePositionNaut miles runAvg speedWind from/ knotsBaromVisibWave heightAir tempDewpointWater temp
2018-Feb-18 14:03N 29°35' W 090°36'0 6.5
2018-Feb-18 14:00N 29°35' W 090°36'2 4.3
2018-Feb-18 13:30N 29°35' W 090°39'0 0.0
2018-Feb-18 13:00N 29°35' W 090°39'0 0.0
2018-Feb-18 12:30N 29°35' W 090°39'0 0.0
2018-Feb-18 12:00N 29°35' W 090°39'0 0.0
2018-Feb-18 11:28N 29°35' W 090°39'0 0.0
2018-Feb-18 11:00N 29°35' W 090°39'0 0.0
2018-Feb-18 10:30N 29°35' W 090°39'0 0.0
2018-Feb-18 10:00N 29°35' W 090°39'0 0.0
2018-Feb-18 09:30N 29°35' W 090°39'0 0.0
2018-Feb-18 09:00N 29°35' W 090°39'0 0.0
2018-Feb-18 08:30N 29°35' W 090°39'0 0.0
2018-Feb-18 08:00N 29°35' W 090°39'0 0.0
2018-Feb-18 07:30N 29°35' W 090°39'0 0.0
2018-Feb-18 07:00N 29°35' W 090°39'0 0.0
2018-Feb-18 06:30N 29°35' W 090°39'0 0.0
2018-Feb-18 05:59N 29°35' W 090°39'0 0.0
2018-Feb-18 05:30N 29°35' W 090°39'0 0.0
2018-Feb-18 05:00N 29°35' W 090°39'1 2.8
2018-Feb-18 04:29N 29°36' W 090°40'2 4.4
2018-Feb-18 04:00N 29°37' W 090°43'3 5.5
2018-Feb-18 03:30N 29°34' W 090°43'1 1.3
2018-Feb-18 03:00N 29°34' W 090°44'0 0.5
2018-Feb-18 02:30N 29°34' W 090°44'1 1.4
2018-Feb-18 02:00N 29°33' W 090°45'1 2.3
2018-Feb-18 01:30N 29°32' W 090°46'69 6.1
2018-Feb-17 14:08N 29°49' W 092°03'1 7.3
2018-Feb-17 13:59N 29°48' W 092°04'3 6.9
2018-Feb-17 13:30N 29°47' W 092°07'3 5.2
2018-Feb-17 13:00N 29°47' W 092°10'0 0.0
2018-Feb-17 12:30N 29°47' W 092°10'1 1.4
2018-Feb-17 12:00N 29°47' W 092°11'0 0.5
2018-Feb-17 11:30N 29°47' W 092°11'0 0.0
2018-Feb-17 11:00N 29°47' W 092°11'0 0.0
2018-Feb-17 10:30N 29°47' W 092°11'0 0.0
2018-Feb-17 10:00N 29°47' W 092°11'0 0.0
2018-Feb-17 09:31N 29°47' W 092°11'0 0.0
2018-Feb-17 09:01N 29°47' W 092°11'0 0.0
2018-Feb-17 08:31N 29°47' W 092°11'0 0.0
2018-Feb-17 08:00N 29°47' W 092°11'0 0.0
2018-Feb-17 07:31N 29°47' W 092°11'0 0.0
2018-Feb-17 07:01N 29°47' W 092°11'0 0.0
2018-Feb-17 06:30N 29°47' W 092°11'0 0.0
2018-Feb-17 06:00N 29°47' W 092°11'0 0.0
2018-Feb-17 05:30N 29°47' W 092°11'0 0.0
2018-Feb-17 05:00N 29°47' W 092°11'0 0.0
2018-Feb-17 04:31N 29°47' W 092°11'0 0.0
2018-Feb-17 04:01N 29°47' W 092°11'0 0.0
2018-Feb-17 03:30N 29°47' W 092°11'0 0.0
2018-Feb-17 03:00N 29°47' W 092°11'0 0.0
2018-Feb-17 02:30N 29°47' W 092°11'0 0.0
2018-Feb-17 02:01N 29°47' W 092°11'1 1.9
2018-Feb-17 01:30N 29°47' W 092°10'  
2018-Feb-14 04:15N 29°47' W 092°11'0 0.0
2018-Feb-12 22:25N 29°47' W 092°11'2 4.3
2018-Feb-12 22:00N 29°47' W 092°09'3 0.3
2018-Feb-12 13:26N 29°49' W 092°08'2 3.8
2018-Feb-12 13:00N 29°48' W 092°08'2 4.0
2018-Feb-12 12:30N 29°47' W 092°10'1 1.7
2018-Feb-12 12:00N 29°47' W 092°11'0 0.1
2018-Feb-12 11:30N 29°47' W 092°11'0 0.0
2018-Feb-12 10:59N 29°47' W 092°11'0 0.0
2018-Feb-12 10:30N 29°47' W 092°11'0 0.0
2018-Feb-12 10:00N 29°47' W 092°11'0 0.0
2018-Feb-12 09:30N 29°47' W 092°11'0 0.0
2018-Feb-12 09:00N 29°47' W 092°11'0 0.0
2018-Feb-12 08:30N 29°47' W 092°11'0 0.0
2018-Feb-12 08:00N 29°47' W 092°11'0 0.0
2018-Feb-12 07:30N 29°47' W 092°11'0 0.0
2018-Feb-12 07:00N 29°47' W 092°11'0 0.0
2018-Feb-12 06:30N 29°47' W 092°11'0 0.0
2018-Feb-12 05:58N 29°47' W 092°11'0 0.0
2018-Feb-12 05:30N 29°47' W 092°11'0 0.0
2018-Feb-12 05:00N 29°47' W 092°11'0 0.0
2018-Feb-12 04:30N 29°47' W 092°11'0 0.0
2018-Feb-12 04:00N 29°47' W 092°11'0 0.0
2018-Feb-12 03:30N 29°47' W 092°11'0 0.0
2018-Feb-12 03:00N 29°47' W 092°11'0 0.0
2018-Feb-12 02:30N 29°47' W 092°11'0 0.0
2018-Feb-12 02:00N 29°47' W 092°11'0 0.0
2018-Feb-12 01:30N 29°47' W 092°11'0 0.0
2018-Feb-12 01:00N 29°47' W 092°11'0 0.0
2018-Feb-12 00:30N 29°47' W 092°11'0 0.0
2018-Feb-12 00:00N 29°47' W 092°11'0 0.0
2018-Feb-11 23:30N 29°47' W 092°11'0 0.0
2018-Feb-11 23:00N 29°47' W 092°11'0 0.0
2018-Feb-11 22:30N 29°47' W 092°11'0 0.0
2018-Feb-11 22:00N 29°47' W 092°11'0 0.0
2018-Feb-11 21:30N 29°47' W 092°11'0 0.0
2018-Feb-11 21:00N 29°47' W 092°11'0 0.0
2018-Feb-11 20:30N 29°47' W 092°11'0 0.0
2018-Feb-11 20:00N 29°47' W 092°11'0 0.0
2018-Feb-11 19:30N 29°47' W 092°11'0 0.0
2018-Feb-11 19:00N 29°47' W 092°11'0 0.0
2018-Feb-11 18:30N 29°47' W 092°11'0 0.0
2018-Feb-11 18:00N 29°47' W 092°11'0 0.0
2018-Feb-11 17:30N 29°47' W 092°11'0 0.0
2018-Feb-11 17:00N 29°47' W 092°11'0 0.0
2018-Feb-11 16:30N 29°47' W 092°11'0 0.0
2018-Feb-11 16:00N 29°47' W 092°11'0 0.0
2018-Feb-11 15:30N 29°47' W 092°11'0 0.0
2018-Feb-11 15:00N 29°47' W 092°11'0 0.0
2018-Feb-11 14:30N 29°47' W 092°11'0 0.0
2018-Feb-11 14:00N 29°47' W 092°11'0 0.0
2018-Feb-11 13:30N 29°47' W 092°11'0 0.0
2018-Feb-11 13:00N 29°47' W 092°11'0 0.0
2018-Feb-11 12:30N 29°47' W 092°11'0 0.0
2018-Feb-11 12:00N 29°47' W 092°11'0 0.0
2018-Feb-11 11:30N 29°47' W 092°11'0 0.0
2018-Feb-11 11:00N 29°47' W 092°11'0 0.0
2018-Feb-11 10:30N 29°47' W 092°11'0 0.0
2018-Feb-11 10:00N 29°47' W 092°11'0 0.0
2018-Feb-11 09:30N 29°47' W 092°11'0 0.0
2018-Feb-11 09:00N 29°47' W 092°11'0 0.0
2018-Feb-11 08:30N 29°47' W 092°11'0 0.0
2018-Feb-11 08:00N 29°47' W 092°11'0 0.0
2018-Feb-11 07:30N 29°47' W 092°11'0 0.0
2018-Feb-11 07:00N 29°47' W 092°11'0 0.0
2018-Feb-11 06:30N 29°47' W 092°11'0 0.0
2018-Feb-11 06:00N 29°47' W 092°11'0 0.0
2018-Feb-11 05:30N 29°47' W 092°11'0 0.0
2018-Feb-11 05:00N 29°47' W 092°11'0 0.0
2018-Feb-11 04:30N 29°47' W 092°11'0 0.0
2018-Feb-11 04:00N 29°47' W 092°11'0 0.0
2018-Feb-11 03:31N 29°47' W 092°11'0 0.0
2018-Feb-11 03:00N 29°47' W 092°11'0 0.0
2018-Feb-11 02:30N 29°47' W 092°11'0 0.0
2018-Feb-11 02:00N 29°47' W 092°11'0 0.0
2018-Feb-11 01:30N 29°47' W 092°11'0 0.0
2018-Feb-11 01:00N 29°47' W 092°11'0 0.0
2018-Feb-11 00:30N 29°47' W 092°11'0 0.0
2018-Feb-11 00:00N 29°47' W 092°11'0 0.0
2018-Feb-10 23:30N 29°47' W 092°11'0 0.0
2018-Feb-10 23:00N 29°47' W 092°11'0 0.0
2018-Feb-10 22:30N 29°47' W 092°11'0 0.0
2018-Feb-10 22:00N 29°47' W 092°11'0 0.0
2018-Feb-10 21:30N 29°47' W 092°11'0 0.0
2018-Feb-10 21:00N 29°47' W 092°11'0 0.0
2018-Feb-10 20:30N 29°47' W 092°11'0 0.0
2018-Feb-10 20:00N 29°47' W 092°11'0 0.0
2018-Feb-10 19:30N 29°47' W 092°11'0 0.0
2018-Feb-10 19:00N 29°47' W 092°11'0 0.0
2018-Feb-10 18:30N 29°47' W 092°11'0 0.0
2018-Feb-10 18:00N 29°47' W 092°11'0 0.0
2018-Feb-10 17:30N 29°47' W 092°11'0 0.0
2018-Feb-10 17:00N 29°47' W 092°11'0 0.0
2018-Feb-10 16:30N 29°47' W 092°11'0 0.0
2018-Feb-10 16:00N 29°47' W 092°11'0 0.0
2018-Feb-10 15:30N 29°47' W 092°11'0 0.0
2018-Feb-10 15:00N 29°47' W 092°11'0 0.0
2018-Feb-10 14:30N 29°47' W 092°11'0 0.0
2018-Feb-10 14:00N 29°47' W 092°11'0 0.0
2018-Feb-10 13:30N 29°47' W 092°11'0 0.0
2018-Feb-10 13:00N 29°47' W 092°11'0 0.0
2018-Feb-10 12:30N 29°47' W 092°11'0 0.0
2018-Feb-10 12:00N 29°47' W 092°11'0 0.0
2018-Feb-10 11:30N 29°47' W 092°11'0 0.0
2018-Feb-10 11:00N 29°47' W 092°11'0 0.0
2018-Feb-10 10:30N 29°47' W 092°11'0 0.0
2018-Feb-10 10:00N 29°47' W 092°11'0 0.0
2018-Feb-10 09:30N 29°47' W 092°11'0 0.0
2018-Feb-10 09:00N 29°47' W 092°11'0 0.0
2018-Feb-10 08:30N 29°47' W 092°11'0 0.0
2018-Feb-10 08:00N 29°47' W 092°11'0 0.0
2018-Feb-10 07:30N 29°47' W 092°11'0 0.0
2018-Feb-10 07:00N 29°47' W 092°11'0 0.0
2018-Feb-10 06:30N 29°47' W 092°11'0 0.0
2018-Feb-10 06:00N 29°47' W 092°11'0 0.0
2018-Feb-10 05:30N 29°47' W 092°11'0 0.0
2018-Feb-10 05:00N 29°47' W 092°11'0 0.0
2018-Feb-10 04:30N 29°47' W 092°11'0 0.0
2018-Feb-10 04:00N 29°47' W 092°11'0 0.0
2018-Feb-10 03:30N 29°47' W 092°11'0 0.0
2018-Feb-10 03:00N 29°47' W 092°11'0 0.0
2018-Feb-10 02:30N 29°47' W 092°11'0 0.0
2018-Feb-10 02:00N 29°47' W 092°11'0 0.0
2018-Feb-10 01:30N 29°47' W 092°11'0 0.0
2018-Feb-10 01:00N 29°47' W 092°11'0 0.0
2018-Feb-10 00:29N 29°47' W 092°11'0 0.0
2018-Feb-09 23:59N 29°47' W 092°11'0 0.0
2018-Feb-09 23:29N 29°47' W 092°11'0 0.0
2018-Feb-09 22:59N 29°47' W 092°11'0 0.2
2018-Feb-09 22:45N 29°47' W 092°11'  
Track history (hours):
 
Tides and Currents Weather Stations Pressure Air Temp Water Temp Dewpoint Dewpoint Depression Visibility Wind Speed Wind Dir Waves Ship Positions

Cheryl Ann

Owner: BROUSSARD BROTHERS INC, ABBEVILLE, LA. More information available from US FCC via Universal Licensing System and Coast Guard Vessel Documentation Center.

Last reported at 2018-Feb-18 14:03 UTC. Time now 2018-Feb-25 10:04 UTC.
Position N 29°35' W 090°36'.

Length 21 m.

Type: Tug. MMSI: 366874680.

Date/timePositionNaut miles runAvg speedWind from/ knotsBaromVisibWave heightAir tempDewpointWater temp
2018-Feb-18 14:03N 29°35' W 090°36'0 6.5
2018-Feb-18 14:00N 29°35' W 090°36'2 4.3
2018-Feb-18 13:30N 29°35' W 090°39'0 0.0
2018-Feb-18 13:00N 29°35' W 090°39'0 0.0
2018-Feb-18 12:30N 29°35' W 090°39'0 0.0
2018-Feb-18 12:00N 29°35' W 090°39'0 0.0
2018-Feb-18 11:28N 29°35' W 090°39'0 0.0
2018-Feb-18 11:00N 29°35' W 090°39'0 0.0
2018-Feb-18 10:30N 29°35' W 090°39'0 0.0
2018-Feb-18 10:00N 29°35' W 090°39'0 0.0
2018-Feb-18 09:30N 29°35' W 090°39'0 0.0
2018-Feb-18 09:00N 29°35' W 090°39'0 0.0
2018-Feb-18 08:30N 29°35' W 090°39'0 0.0
2018-Feb-18 08:00N 29°35' W 090°39'0 0.0
2018-Feb-18 07:30N 29°35' W 090°39'0 0.0
2018-Feb-18 07:00N 29°35' W 090°39'0 0.0
2018-Feb-18 06:30N 29°35' W 090°39'0 0.0
2018-Feb-18 05:59N 29°35' W 090°39'0 0.0
2018-Feb-18 05:30N 29°35' W 090°39'0 0.0
2018-Feb-18 05:00N 29°35' W 090°39'1 2.8
2018-Feb-18 04:29N 29°36' W 090°40'2 4.4
2018-Feb-18 04:00N 29°37' W 090°43'3 5.5
2018-Feb-18 03:30N 29°34' W 090°43'1 1.3
2018-Feb-18 03:00N 29°34' W 090°44'0 0.5
2018-Feb-18 02:30N 29°34' W 090°44'1 1.4
2018-Feb-18 02:00N 29°33' W 090°45'1 2.3
2018-Feb-18 01:30N 29°32' W 090°46'69 6.1
2018-Feb-17 14:08N 29°49' W 092°03'1 7.3
2018-Feb-17 13:59N 29°48' W 092°04'3 6.9
2018-Feb-17 13:30N 29°47' W 092°07'3 5.2
2018-Feb-17 13:00N 29°47' W 092°10'0 0.0
2018-Feb-17 12:30N 29°47' W 092°10'1 1.4
2018-Feb-17 12:00N 29°47' W 092°11'0 0.5
2018-Feb-17 11:30N 29°47' W 092°11'0 0.0
2018-Feb-17 11:00N 29°47' W 092°11'0 0.0
2018-Feb-17 10:30N 29°47' W 092°11'0 0.0
2018-Feb-17 10:00N 29°47' W 092°11'0 0.0
2018-Feb-17 09:31N 29°47' W 092°11'0 0.0
2018-Feb-17 09:01N 29°47' W 092°11'0 0.0
2018-Feb-17 08:31N 29°47' W 092°11'0 0.0
2018-Feb-17 08:00N 29°47' W 092°11'0 0.0
2018-Feb-17 07:31N 29°47' W 092°11'0 0.0
2018-Feb-17 07:01N 29°47' W 092°11'0 0.0
2018-Feb-17 06:30N 29°47' W 092°11'0 0.0
2018-Feb-17 06:00N 29°47' W 092°11'0 0.0
2018-Feb-17 05:30N 29°47' W 092°11'0 0.0
2018-Feb-17 05:00N 29°47' W 092°11'0 0.0
2018-Feb-17 04:31N 29°47' W 092°11'0 0.0
2018-Feb-17 04:01N 29°47' W 092°11'0 0.0
2018-Feb-17 03:30N 29°47' W 092°11'0 0.0
2018-Feb-17 03:00N 29°47' W 092°11'0 0.0
2018-Feb-17 02:30N 29°47' W 092°11'0 0.0
2018-Feb-17 02:01N 29°47' W 092°11'1 1.9
2018-Feb-17 01:30N 29°47' W 092°10'  
2018-Feb-14 04:15N 29°47' W 092°11'0 0.0
2018-Feb-12 22:25N 29°47' W 092°11'2 4.3
2018-Feb-12 22:00N 29°47' W 092°09'3 0.3
2018-Feb-12 13:26N 29°49' W 092°08'2 3.8
2018-Feb-12 13:00N 29°48' W 092°08'2 4.0
2018-Feb-12 12:30N 29°47' W 092°10'1 1.7
2018-Feb-12 12:00N 29°47' W 092°11'0 0.1
2018-Feb-12 11:30N 29°47' W 092°11'0 0.0
2018-Feb-12 10:59N 29°47' W 092°11'0 0.0
2018-Feb-12 10:30N 29°47' W 092°11'0 0.0
2018-Feb-12 10:00N 29°47' W 092°11'0 0.0
2018-Feb-12 09:30N 29°47' W 092°11'0 0.0
2018-Feb-12 09:00N 29°47' W 092°11'0 0.0
2018-Feb-12 08:30N 29°47' W 092°11'0 0.0
2018-Feb-12 08:00N 29°47' W 092°11'0 0.0
2018-Feb-12 07:30N 29°47' W 092°11'0 0.0
2018-Feb-12 07:00N 29°47' W 092°11'0 0.0
2018-Feb-12 06:30N 29°47' W 092°11'0 0.0
2018-Feb-12 05:58N 29°47' W 092°11'0 0.0
2018-Feb-12 05:30N 29°47' W 092°11'0 0.0
2018-Feb-12 05:00N 29°47' W 092°11'0 0.0
2018-Feb-12 04:30N 29°47' W 092°11'0 0.0
2018-Feb-12 04:00N 29°47' W 092°11'0 0.0
2018-Feb-12 03:30N 29°47' W 092°11'0 0.0
2018-Feb-12 03:00N 29°47' W 092°11'0 0.0
2018-Feb-12 02:30N 29°47' W 092°11'0 0.0
2018-Feb-12 02:00N 29°47' W 092°11'0 0.0
2018-Feb-12 01:30N 29°47' W 092°11'0 0.0
2018-Feb-12 01:00N 29°47' W 092°11'0 0.0
2018-Feb-12 00:30N 29°47' W 092°11'0 0.0
2018-Feb-12 00:00N 29°47' W 092°11'0 0.0
2018-Feb-11 23:30N 29°47' W 092°11'0 0.0
2018-Feb-11 23:00N 29°47' W 092°11'0 0.0
2018-Feb-11 22:30N 29°47' W 092°11'0 0.0
2018-Feb-11 22:00N 29°47' W 092°11'0 0.0
2018-Feb-11 21:30N 29°47' W 092°11'0 0.0
2018-Feb-11 21:00N 29°47' W 092°11'0 0.0
2018-Feb-11 20:30N 29°47' W 092°11'0 0.0
2018-Feb-11 20:00N 29°47' W 092°11'0 0.0
2018-Feb-11 19:30N 29°47' W 092°11'0 0.0
2018-Feb-11 19:00N 29°47' W 092°11'0 0.0
2018-Feb-11 18:30N 29°47' W 092°11'0 0.0
2018-Feb-11 18:00N 29°47' W 092°11'0 0.0
2018-Feb-11 17:30N 29°47' W 092°11'0 0.0
2018-Feb-11 17:00N 29°47' W 092°11'0 0.0
2018-Feb-11 16:30N 29°47' W 092°11'0 0.0
2018-Feb-11 16:00N 29°47' W 092°11'0 0.0
2018-Feb-11 15:30N 29°47' W 092°11'0 0.0
2018-Feb-11 15:00N 29°47' W 092°11'0 0.0
2018-Feb-11 14:30N 29°47' W 092°11'0 0.0
2018-Feb-11 14:00N 29°47' W 092°11'0 0.0
2018-Feb-11 13:30N 29°47' W 092°11'0 0.0
2018-Feb-11 13:00N 29°47' W 092°11'0 0.0
2018-Feb-11 12:30N 29°47' W 092°11'0 0.0
2018-Feb-11 12:00N 29°47' W 092°11'0 0.0
2018-Feb-11 11:30N 29°47' W 092°11'0 0.0
2018-Feb-11 11:00N 29°47' W 092°11'0 0.0
2018-Feb-11 10:30N 29°47' W 092°11'0 0.0
2018-Feb-11 10:00N 29°47' W 092°11'0 0.0
2018-Feb-11 09:30N 29°47' W 092°11'0 0.0
2018-Feb-11 09:00N 29°47' W 092°11'0 0.0
2018-Feb-11 08:30N 29°47' W 092°11'0 0.0
2018-Feb-11 08:00N 29°47' W 092°11'0 0.0
2018-Feb-11 07:30N 29°47' W 092°11'0 0.0
2018-Feb-11 07:00N 29°47' W 092°11'0 0.0
2018-Feb-11 06:30N 29°47' W 092°11'0 0.0
2018-Feb-11 06:00N 29°47' W 092°11'0 0.0
2018-Feb-11 05:30N 29°47' W 092°11'0 0.0
2018-Feb-11 05:00N 29°47' W 092°11'0 0.0
2018-Feb-11 04:30N 29°47' W 092°11'0 0.0
2018-Feb-11 04:00N 29°47' W 092°11'0 0.0
2018-Feb-11 03:31N 29°47' W 092°11'0 0.0
2018-Feb-11 03:00N 29°47' W 092°11'0 0.0
2018-Feb-11 02:30N 29°47' W 092°11'0 0.0
2018-Feb-11 02:00N 29°47' W 092°11'0 0.0
2018-Feb-11 01:30N 29°47' W 092°11'0 0.0
2018-Feb-11 01:00N 29°47' W 092°11'0 0.0
2018-Feb-11 00:30N 29°47' W 092°11'0 0.0
2018-Feb-11 00:00N 29°47' W 092°11'0 0.0
2018-Feb-10 23:30N 29°47' W 092°11'0 0.0
2018-Feb-10 23:00N 29°47' W 092°11'0 0.0
2018-Feb-10 22:30N 29°47' W 092°11'0 0.0
2018-Feb-10 22:00N 29°47' W 092°11'0 0.0
2018-Feb-10 21:30N 29°47' W 092°11'0 0.0
2018-Feb-10 21:00N 29°47' W 092°11'0 0.0
2018-Feb-10 20:30N 29°47' W 092°11'0 0.0
2018-Feb-10 20:00N 29°47' W 092°11'0 0.0
2018-Feb-10 19:30N 29°47' W 092°11'0 0.0
2018-Feb-10 19:00N 29°47' W 092°11'0 0.0
2018-Feb-10 18:30N 29°47' W 092°11'0 0.0
2018-Feb-10 18:00N 29°47' W 092°11'0 0.0
2018-Feb-10 17:30N 29°47' W 092°11'0 0.0
2018-Feb-10 17:00N 29°47' W 092°11'0 0.0
2018-Feb-10 16:30N 29°47' W 092°11'0 0.0
2018-Feb-10 16:00N 29°47' W 092°11'0 0.0
2018-Feb-10 15:30N 29°47' W 092°11'0 0.0
2018-Feb-10 15:00N 29°47' W 092°11'0 0.0
2018-Feb-10 14:30N 29°47' W 092°11'0 0.0
2018-Feb-10 14:00N 29°47' W 092°11'0 0.0
2018-Feb-10 13:30N 29°47' W 092°11'0 0.0
2018-Feb-10 13:00N 29°47' W 092°11'0 0.0
2018-Feb-10 12:30N 29°47' W 092°11'0 0.0
2018-Feb-10 12:00N 29°47' W 092°11'0 0.0
2018-Feb-10 11:30N 29°47' W 092°11'0 0.0
2018-Feb-10 11:00N 29°47' W 092°11'0 0.0
2018-Feb-10 10:30N 29°47' W 092°11'0 0.0
2018-Feb-10 10:00N 29°47' W 092°11'0 0.0
2018-Feb-10 09:30N 29°47' W 092°11'0 0.0
2018-Feb-10 09:00N 29°47' W 092°11'0 0.0
2018-Feb-10 08:30N 29°47' W 092°11'0 0.0
2018-Feb-10 08:00N 29°47' W 092°11'0 0.0
2018-Feb-10 07:30N 29°47' W 092°11'0 0.0
2018-Feb-10 07:00N 29°47' W 092°11'0 0.0
2018-Feb-10 06:30N 29°47' W 092°11'0 0.0
2018-Feb-10 06:00N 29°47' W 092°11'0 0.0
2018-Feb-10 05:30N 29°47' W 092°11'0 0.0
2018-Feb-10 05:00N 29°47' W 092°11'0 0.0
2018-Feb-10 04:30N 29°47' W 092°11'0 0.0
2018-Feb-10 04:00N 29°47' W 092°11'0 0.0
2018-Feb-10 03:30N 29°47' W 092°11'0 0.0
2018-Feb-10 03:00N 29°47' W 092°11'0 0.0
2018-Feb-10 02:30N 29°47' W 092°11'0 0.0
2018-Feb-10 02:00N 29°47' W 092°11'0 0.0
2018-Feb-10 01:30N 29°47' W 092°11'0 0.0
2018-Feb-10 01:00N 29°47' W 092°11'0 0.0
2018-Feb-10 00:29N 29°47' W 092°11'0 0.0
2018-Feb-09 23:59N 29°47' W 092°11'0 0.0
2018-Feb-09 23:29N 29°47' W 092°11'0 0.0
2018-Feb-09 22:59N 29°47' W 092°11'0 0.2
2018-Feb-09 22:45N 29°47' W 092°11'  

Dump ship's entire track history